Time;durP1;ratioP1;P1;durP2;ratioP2;P2;SDS_P1;SDS_P2;PMS_P1;PMS_P2;Temp;Humidity;BMP_temperature;BMP_pressure;BME280_temperature;BME280_humidity;BME280_pressure;Samples;Min_cycle;Max_cycle;Signal;HPM_P1;HPM_P2
2021/01/15 00:00:17;;;;;;;20.73;10.32;;;51.40;2048.00;;;;;;5033399;28;20620;-54
2021/01/15 00:02:42;;;;;;;21.60;10.77;;;51.40;2048.00;;;;;;5033871;28;20025;-55
2021/01/15 00:05:08;;;;;;;26.60;13.43;;;51.30;2048.00;;;;;;5033924;28;20397;-54
2021/01/15 00:07:34;;;;;;;11.50;6.15;;;51.30;2048.00;;;;;;5033494;28;20037;-56
2021/01/15 00:10:00;;;;;;;14.23;9.13;;;51.30;2048.00;;;;;;5033469;28;20116;-55
2021/01/15 00:12:25;;;;;;;25.08;10.48;;;51.40;2022.40;;;;;;5033651;28;20029;-55
2021/01/15 00:14:51;;;;;;;23.02;13.13;;;51.40;2048.00;;;;;;5033642;28;20032;-54
2021/01/15 00:17:17;;;;;;;8.48;5.20;;;51.50;2022.40;;;;;;5033203;28;20118;-55
2021/01/15 00:19:42;;;;;;;11.50;7.15;;;51.40;2022.40;;;;;;5033700;28;20439;-53
2021/01/15 00:22:08;;;;;;;39.88;20.25;;;51.40;2048.00;;;;;;5033620;28;20064;-53
2021/01/15 00:24:34;;;;;;;30.15;18.13;;;51.50;2022.40;;;;;;5033599;28;20055;-53
2021/01/15 00:26:59;;;;;;;14.32;9.40;;;51.40;2022.40;;;;;;5033370;28;20132;-54
2021/01/15 00:29:27;;;;;;;20.17;12.18;;;51.50;2022.40;;;;;;5033067;28;20475;-55
2021/01/15 00:31:52;;;;;;;33.35;18.58;;;51.40;2022.40;;;;;;5033366;28;20033;-53
2021/01/15 00:34:18;;;;;;;10.30;5.97;;;51.40;2048.00;;;;;;5033292;28;20045;-54
2021/01/15 00:36:46;;;;;;;10.32;6.30;;;51.20;2048.00;;;;;;5032898;28;20383;-53
2021/01/15 00:39:14;;;;;;;15.15;10.13;;;51.30;2048.00;;;;;;5033094;28;20171;-53
2021/01/15 00:41:42;;;;;;;41.03;19.15;;;51.30;2048.00;;;;;;5033068;28;20033;-53
2021/01/15 00:44:09;;;;;;;27.38;14.82;;;51.40;2048.00;;;;;;5033045;28;20109;-52
2021/01/15 00:46:36;;;;;;;17.20;8.10;;;51.40;2048.00;;;;;;5032624;28;20041;-52
2021/01/15 00:49:07;;;;;;;19.67;11.68;;;51.40;2048.00;;;;;;5032614;28;20058;-54
2021/01/15 00:51:35;;;;;;;22.90;10.82;;;51.40;2022.40;;;;;;5032701;28;20033;-55
2021/01/15 00:54:01;;;;;;;21.00;11.38;;;51.50;2022.40;;;;;;5032694;28;20025;-52
2021/01/15 00:56:27;;;;;;;24.33;13.55;;;51.40;2048.00;;;;;;5032476;28;20033;-53
2021/01/15 00:58:53;;;;;;;10.20;5.90;;;51.50;2048.00;;;;;;5032625;28;20025;-54
2021/01/15 01:01:21;;;;;;;40.90;23.48;;;51.60;2022.40;;;;;;5032830;28;20033;-53
2021/01/15 01:03:48;;;;;;;12.15;8.30;;;51.60;2022.40;;;;;;5032494;28;20471;-54
2021/01/15 01:06:22;;;;;;;15.98;8.75;;;51.50;2022.40;;;;;;5032288;28;20120;-54
2021/01/15 01:08:48;;;;;;;26.80;14.30;;;51.40;2048.00;;;;;;5032441;28;20116;-54
2021/01/15 01:11:19;;;;;;;8.90;5.35;;;51.50;2048.00;;;;;;5032439;28;20040;-54
2021/01/15 01:13:48;;;;;;;21.83;11.48;;;51.40;2022.40;;;;;;5032428;28;20056;-53
2021/01/15 01:16:15;;;;;;;17.67;9.68;;;51.40;2022.40;;;;;;5032254;28;20054;-54
2021/01/15 01:18:42;;;;;;;11.18;5.40;;;51.50;2022.40;;;;;;5032287;28;20022;-53
2021/01/15 01:21:08;;;;;;;9.40;5.85;;;51.60;2022.40;;;;;;5031947;28;20040;-54
2021/01/15 01:23:33;;;;;;;10.18;6.25;;;51.60;1996.80;;;;;;5031984;28;20022;-54
2021/01/15 01:25:59;;;;;;;7.38;5.25;;;51.40;2048.00;;;;;;5032177;28;20029;-53
2021/01/15 01:28:25;;;;;;;8.48;5.35;;;51.50;2022.40;;;;;;5031890;28;20029;-54
2021/01/15 01:30:51;;;;;;;10.82;6.70;;;51.70;1996.80;;;;;;5032298;28;20101;-54
2021/01/15 01:33:16;;;;;;;10.60;7.05;;;51.60;2022.40;;;;;;5031996;28;20029;-53
2021/01/15 01:35:42;;;;;;;15.25;7.82;;;51.70;1996.80;;;;;;5032027;28;20361;-53
2021/01/15 01:38:08;;;;;;;12.18;6.47;;;51.70;1996.80;;;;;;5031772;28;20029;-54
2021/01/15 01:40:33;;;;;;;33.47;18.30;;;51.70;1996.80;;;;;;5031689;28;20452;-54
2021/01/15 01:42:59;;;;;;;12.63;7.50;;;51.70;1996.80;;;;;;5031991;28;20034;-54
2021/01/15 01:45:25;;;;;;;91.10;40.60;;;51.70;1996.80;;;;;;5031679;28;20356;-54
2021/01/15 01:47:52;;;;;;;14.50;8.23;;;51.70;1996.80;;;;;;5031419;28;20061;-54
2021/01/15 01:50:18;;;;;;;20.80;11.75;;;51.60;1996.80;;;;;;5031896;28;20029;-53
2021/01/15 01:52:44;;;;;;;11.82;7.75;;;51.50;2022.40;;;;;;5031362;28;20104;-54
2021/01/15 01:55:12;;;;;;;8.77;7.40;;;51.60;1996.80;;;;;;5031570;28;20040;-55
2021/01/15 01:57:38;;;;;;;8.05;5.25;;;51.60;2022.40;;;;;;5031332;28;20090;-53
2021/01/15 02:00:06;;;;;;;10.02;7.50;;;51.50;2022.40;;;;;;5031377;28;20555;-54
2021/01/15 02:02:31;;;;;;;8.60;6.18;;;51.40;2022.40;;;;;;5031627;28;20075;-53
2021/01/15 02:04:57;;;;;;;9.55;6.22;;;51.50;2022.40;;;;;;5030721;28;20475;-54
2021/01/15 02:07:22;;;;;;;15.73;10.00;;;51.60;1996.80;;;;;;5031475;28;20595;-53
2021/01/15 02:10:22;;;;;;;10.63;5.85;;;51.50;2022.40;;;;;;5031427;28;20045;-53
2021/01/15 02:12:57;;;;;;;9.55;5.28;;;51.60;2022.40;;;;;;5031434;28;20021;-54
2021/01/15 02:15:48;;;;;;;10.55;6.43;;;51.60;1996.80;;;;;;5031333;28;20084;-54
2021/01/15 02:18:34;;;;;;;7.47;5.13;;;51.50;2022.40;;;;;;4989313;28;20034;-53
2021/01/15 02:21:19;;;;;;;8.50;5.55;;;51.50;2022.40;;;;;;4989662;28;20049;-54
2021/01/15 02:23:46;;;;;;;12.52;6.28;;;51.50;2022.40;;;;;;4989507;28;20034;-53
2021/01/15 02:26:25;;;;;;;10.43;6.28;;;51.50;2022.40;;;;;;4989447;28;20030;-54
2021/01/15 02:29:10;;;;;;;11.75;6.38;;;51.60;2022.40;;;;;;4989418;28;20038;-54
2021/01/15 02:31:45;;;;;;;11.27;7.93;;;51.70;1996.80;;;;;;4988637;28;20031;-55
2021/01/15 02:34:34;;;;;;;14.65;9.77;;;51.60;1996.80;;;;;;4987419;28;20023;-55
2021/01/15 02:37:17;;;;;;;9.82;5.68;;;51.60;1996.80;;;;;;4989358;28;20042;-55
2021/01/15 02:39:43;;;;;;;13.93;8.55;;;51.60;2022.40;;;;;;4989251;28;20037;-56
2021/01/15 02:42:10;;;;;;;14.77;9.52;;;51.50;1996.80;;;;;;4989128;28;20038;-55
2021/01/15 02:44:39;;;;;;;18.85;9.27;;;51.80;1971.20;;;;;;4989029;28;20023;-55
2021/01/15 02:47:12;;;;;;;12.43;6.88;;;51.80;1971.20;;;;;;4988908;28;20538;-56
2021/01/15 02:49:42;;;;;;;13.13;7.05;;;51.80;1996.80;;;;;;4988492;28;20121;-56
2021/01/15 02:52:09;;;;;;;9.50;5.78;;;51.80;1971.20;;;;;;4988897;28;20030;-53
2021/01/15 02:54:36;;;;;;;11.35;7.45;;;51.60;1996.80;;;;;;4996873;28;20044;-55
2021/01/15 02:57:02;;;;;;;15.00;8.43;;;51.60;2022.40;;;;;;5030338;28;20379;-53
2021/01/15 02:59:28;;;;;;;14.20;9.32;;;51.70;1996.80;;;;;;5030489;28;20052;-55
2021/01/15 03:02:03;;;;;;;21.17;12.38;;;51.70;1996.80;;;;;;5029868;28;20022;-56
2021/01/15 03:04:36;;;;;;;16.67;10.52;;;51.70;1996.80;;;;;;5030711;28;20039;-53
2021/01/15 03:07:03;;;;;;;7.75;5.95;;;51.60;1996.80;;;;;;5030563;28;20041;-53
2021/01/15 03:09:37;;;;;;;10.98;7.05;;;51.70;1971.20;;;;;;5030595;28;20068;-54
2021/01/15 03:12:05;;;;;;;19.48;11.63;;;51.80;1971.20;;;;;;5030405;28;20021;-54
2021/01/15 03:14:35;;;;;;;17.63;9.30;;;51.70;1971.20;;;;;;5030347;28;20378;-54
2021/01/15 03:17:06;;;;;;;11.68;7.00;;;51.70;1996.80;;;;;;5029505;28;20419;-55
2021/01/15 03:19:33;;;;;;;17.92;10.55;;;51.70;1996.80;;;;;;5030517;28;20025;-55
2021/01/15 03:22:22;;;;;;;10.95;6.70;;;51.60;1996.80;;;;;;5030367;28;20045;-54
2021/01/15 03:24:55;;;;;;;12.73;8.05;;;51.60;1996.80;;;;;;5029745;28;20072;-54
2021/01/15 03:27:22;;;;;;;12.00;6.35;;;51.70;1996.80;;;;;;5030128;28;20514;-54
2021/01/15 03:29:48;;;;;;;64.68;38.30;;;51.60;1996.80;;;;;;5030315;28;20018;-53
2021/01/15 03:32:14;;;;;;;18.70;12.05;;;51.60;1971.20;;;;;;5029935;28;20029;-54
2021/01/15 03:34:40;;;;;;;23.15;16.13;;;51.60;1996.80;;;;;;5030310;28;20074;-55
2021/01/15 03:37:06;;;;;;;10.18;6.28;;;51.60;1996.80;;;;;;5029928;28;20388;-54
2021/01/15 03:39:33;;;;;;;11.90;7.97;;;51.60;1996.80;;;;;;5030064;28;20022;-54
2021/01/15 03:41:58;;;;;;;11.65;8.05;;;51.60;1996.80;;;;;;5029918;28;20142;-55
2021/01/15 03:44:24;;;;;;;13.18;9.15;;;51.60;1996.80;;;;;;5030056;28;20155;-55
2021/01/15 03:46:59;;;;;;;10.50;7.25;;;51.70;1996.80;;;;;;5029979;28;20037;-55
2021/01/15 03:49:24;;;;;;;11.05;6.93;;;51.70;1996.80;;;;;;5029508;28;20470;-55
2021/01/15 03:51:50;;;;;;;13.13;8.75;;;51.60;1996.80;;;;;;5029947;28;20179;-55
2021/01/15 03:54:16;;;;;;;11.13;6.95;;;51.60;1996.80;;;;;;5029753;28;20033;-54
2021/01/15 03:56:41;;;;;;;10.35;7.20;;;51.80;1971.20;;;;;;5029808;28;20029;-54
2021/01/15 03:59:07;;;;;;;12.38;9.02;;;51.60;1971.20;;;;;;5029737;28;20025;-54
2021/01/15 04:01:35;;;;;;;9.60;6.38;;;51.60;1996.80;;;;;;5029918;28;20052;-54
2021/01/15 04:04:01;;;;;;;37.55;29.42;;;51.70;1971.20;;;;;;5030005;28;20025;-53
2021/01/15 04:06:27;;;;;;;11.68;7.70;;;51.60;1971.20;;;;;;5029711;28;20037;-53
2021/01/15 04:08:53;;;;;;;10.68;6.80;;;51.50;1996.80;;;;;;5029715;28;20045;-54
2021/01/15 04:11:19;;;;;;;13.55;9.38;;;51.60;1996.80;;;;;;5029914;28;20029;-54
2021/01/15 04:13:46;;;;;;;12.25;7.93;;;51.60;1971.20;;;;;;5029651;28;20096;-55
2021/01/15 04:16:15;;;;;;;13.95;8.60;;;51.80;1971.20;;;;;;5029768;28;20033;-53
2021/01/15 04:18:41;;;;;;;38.85;18.83;;;51.70;1971.20;;;;;;5029684;28;20101;-54
2021/01/15 04:21:07;;;;;;;114.28;57.03;;;51.70;1996.80;;;;;;5029445;28;20431;-53
2021/01/15 04:23:34;;;;;;;20.02;12.50;;;51.60;1996.80;;;;;;5029823;28;20025;-53
2021/01/15 04:26:01;;;;;;;27.15;19.92;;;51.60;1971.20;;;;;;5029536;28;20064;-53
2021/01/15 04:28:27;;;;;;;72.25;37.55;;;51.60;1996.80;;;;;;5030547;28;20033;-54
2021/01/15 04:30:53;;;;;;;14.68;10.00;;;51.50;1996.80;;;;;;5023193;28;20037;-53
2021/01/15 04:33:18;;;;;;;19.67;11.70;;;51.50;2022.40;;;;;;5013790;28;20026;-54
2021/01/15 04:35:44;;;;;;;14.00;8.38;;;51.60;1996.80;;;;;;5013271;28;20160;-54
2021/01/15 04:38:11;;;;;;;18.00;8.20;;;51.50;1996.80;;;;;;5013376;28;20419;-54
2021/01/15 04:40:37;;;;;;;35.15;18.08;;;51.50;2022.40;;;;;;5013013;28;20037;-54
2021/01/15 04:43:05;;;;;;;14.10;9.10;;;51.40;2022.40;;;;;;5013594;28;20488;-53
2021/01/15 04:45:31;;;;;;;11.55;7.47;;;51.30;2022.40;;;;;;5013408;28;20030;-53
2021/01/15 04:47:58;;;;;;;11.13;6.72;;;51.40;2022.40;;;;;;5012690;28;20068;-55
2021/01/15 04:50:24;;;;;;;13.15;9.95;;;51.20;2048.00;;;;;;5018048;28;20097;-55
2021/01/15 04:52:51;;;;;;;15.18;8.80;;;51.30;2022.40;;;;;;5021787;28;20076;-54
2021/01/15 04:55:18;;;;;;;17.15;11.98;;;51.40;1996.80;;;;;;5032548;28;20033;-53
2021/01/15 04:57:48;;;;;;;18.40;12.05;;;51.40;2022.40;;;;;;5032362;28;20036;-55
2021/01/15 05:00:18;;;;;;;17.10;10.82;;;51.30;2022.40;;;;;;5032473;28;20104;-55
2021/01/15 05:02:48;;;;;;;43.88;25.42;;;51.30;2022.40;;;;;;5032535;28;20430;-55
2021/01/15 05:05:22;;;;;;;15.60;9.68;;;51.30;2022.40;;;;;;5032742;28;20037;-54
2021/01/15 05:08:09;;;;;;;13.40;8.80;;;51.40;1996.80;;;;;;5032465;28;20383;-54
2021/01/15 05:10:48;;;;;;;18.85;9.77;;;51.20;2022.40;;;;;;5032343;28;20025;-54
2021/01/15 05:13:16;;;;;;;16.88;8.38;;;51.30;2022.40;;;;;;5032157;28;20101;-55
2021/01/15 05:15:44;;;;;;;14.60;9.35;;;51.20;2022.40;;;;;;5032457;28;20045;-54
2021/01/15 05:18:10;;;;;;;18.45;10.60;;;26.50;2022.40;;;;;;5032286;28;20036;-54
2021/01/15 05:20:37;;;;;;;18.33;11.73;;;26.50;2022.40;;;;;;5032213;28;20030;-53
2021/01/15 05:23:07;;;;;;;16.38;10.90;;;26.40;2022.40;;;;;;5032584;28;20083;-53
2021/01/15 05:25:42;;;;;;;15.70;10.80;;;26.40;2022.40;;;;;;5032337;28;20589;-53
2021/01/15 05:28:07;;;;;;;24.30;13.05;;;26.30;2022.40;;;;;;5031984;28;20061;-53
2021/01/15 05:30:34;;;;;;;12.25;8.73;;;26.40;2022.40;;;;;;5032072;28;20434;-55
2021/01/15 05:33:00;;;;;;;14.38;8.13;;;26.40;2022.40;;;;;;5032088;28;20051;-53
2021/01/15 05:35:40;;;;;;;12.85;8.13;;;26.30;2022.40;;;;;;5031879;28;20372;-54
2021/01/15 05:38:06;;;;;;;12.65;7.68;;;26.20;2022.40;;;;;;5032068;28;20032;-54
2021/01/15 05:40:43;;;;;;;13.20;8.18;;;26.20;2022.40;;;;;;5031151;28;20025;-53
2021/01/15 05:43:19;;;;;;;19.45;12.55;;;26.40;2022.40;;;;;;5031844;28;20060;-55
2021/01/15 05:46:14;;;;;;;19.00;11.07;;;26.30;2022.40;;;;;;5031480;28;20025;-53
2021/01/15 05:48:48;;;;;;;20.17;12.15;;;26.20;2022.40;;;;;;5031447;28;20049;-54
2021/01/15 05:51:33;;;;;;;20.02;11.40;;;26.40;1996.80;;;;;;5031636;28;20068;-54
2021/01/15 05:54:01;;;;;;;16.95;9.93;;;26.40;1996.80;;;;;;5031651;28;20112;-53
2021/01/15 05:56:39;;;;;;;15.93;9.40;;;26.40;1996.80;;;;;;5031435;28;20036;-54
2021/01/15 05:59:09;;;;;;;14.15;8.07;;;26.20;1996.80;;;;;;5031453;28;20022;-53
2021/01/15 06:01:49;;;;;;;15.05;9.02;;;26.20;1996.80;;;;;;5031238;28;20484;-53
2021/01/15 06:04:20;;;;;;;14.98;9.77;;;26.20;1996.80;;;;;;5031449;28;20017;-55
2021/01/15 06:06:47;;;;;;;17.95;11.57;;;26.20;1996.80;;;;;;5031186;28;20080;-54
2021/01/15 06:09:19;;;;;;;22.70;13.55;;;26.20;1996.80;;;;;;5031467;28;20028;-54
2021/01/15 06:11:45;;;;;;;31.27;18.90;;;26.30;1996.80;;;;;;5031334;28;20026;-55
2021/01/15 06:14:21;;;;;;;51.45;25.98;;;26.30;1971.20;;;;;;5031202;28;20430;-54
2021/01/15 06:16:47;;;;;;;47.47;21.08;;;26.30;1971.20;;;;;;5030995;28;20029;-54
2021/01/15 06:19:13;;;;;;;36.75;21.15;;;26.20;1971.20;;;;;;5031295;28;20029;-53
2021/01/15 06:21:50;;;;;;;26.52;16.55;;;26.30;1996.80;;;;;;5031178;28;20033;-54
2021/01/15 06:24:20;;;;;;;35.45;19.05;;;26.20;1996.80;;;;;;5031059;28;20013;-54
2021/01/15 06:27:05;;;;;;;33.35;22.13;;;26.20;1996.80;;;;;;5030985;28;20037;-53
2021/01/15 06:29:43;;;;;;;39.58;23.58;;;26.30;1996.80;;;;;;5031026;28;20136;-53
2021/01/15 06:32:11;;;;;;;35.35;21.83;;;26.40;1971.20;;;;;;5031018;28;20034;-54
2021/01/15 06:34:47;;;;;;;39.80;23.50;;;26.30;1971.20;;;;;;5030932;28;20036;-53
2021/01/15 06:37:19;;;;;;;40.10;22.42;;;26.40;1971.20;;;;;;5030894;28;20037;-54
2021/01/15 06:40:29;;;;;;;70.78;39.05;;;26.40;1945.60;;;;;;5030691;28;20017;-55
2021/01/15 06:42:57;;;;;;;57.60;31.25;;;26.50;1945.60;;;;;;5008604;28;20038;-54
2021/01/15 06:45:23;;;;;;;33.72;19.00;;;26.40;1945.60;;;;;;5008980;28;20113;-55
2021/01/15 06:47:53;;;;;;;32.28;17.23;;;26.40;1945.60;;;;;;5008609;28;20132;-53
2021/01/15 06:50:20;;;;;;;26.58;18.35;;;26.40;1945.60;;;;;;5008860;28;20030;-53
2021/01/15 06:52:49;;;;;;;212.18;121.20;;;51.20;1945.60;;;;;;5008461;28;20064;-55
2021/01/15 06:55:18;;;;;;;60.90;42.70;;;51.20;1945.60;;;;;;5008624;28;20122;-54
2021/01/15 06:57:54;;;;;;;130.55;91.43;;;51.40;1920.00;;;;;;5008448;28;20134;-54
2021/01/15 07:00:22;;;;;;;40.85;27.30;;;51.40;1894.40;;;;;;5008798;28;20046;-54
2021/01/15 07:03:33;;;;;;;52.63;43.58;;;51.50;1894.40;;;;;;5008553;28;20033;-53
2021/01/15 07:06:00;;;;;;;174.13;99.88;;;51.60;1894.40;;;;;;5008663;28;20026;-53
2021/01/15 07:08:30;;;;;;;99.90;65.32;;;51.70;1868.80;;;;;;5008400;28;20427;-54
2021/01/15 07:10:56;;;;;;;40.75;29.15;;;51.90;1843.20;;;;;;5008298;28;20424;-54
2021/01/15 07:13:27;;;;;;;33.90;21.30;;;51.80;1843.20;;;;;;5017794;28;20076;-55
2021/01/15 07:15:54;;;;;;;30.98;22.20;;;51.80;1843.20;;;;;;5030349;28;20030;-54
2021/01/15 07:18:31;;;;;;;28.35;19.13;;;76.80;1817.60;;;;;;5030231;28;20069;-54
2021/01/15 07:20:59;;;;;;;25.88;16.05;;;76.80;1792.00;;;;;;5030231;28;20037;-54
2021/01/15 07:23:38;;;;;;;28.98;16.73;;;76.80;1766.40;;;;;;5030013;28;20496;-54
2021/01/15 07:26:05;;;;;;;31.92;20.83;;;77.20;1766.40;;;;;;5029980;28;20052;-54
2021/01/15 07:28:31;;;;;;;37.38;25.95;;;77.20;1740.80;;;;;;5030096;28;20029;-54
2021/01/15 07:31:03;;;;;;;40.08;21.55;;;77.50;1689.60;;;;;;5029809;28;20411;-53
2021/01/15 07:33:31;;;;;;;37.40;22.77;;;77.60;1715.20;;;;;;5025736;28;20375;-54
2021/01/15 07:35:57;;;;;;;47.28;30.40;;;77.50;1689.60;;;;;;5020028;28;20036;-53
2021/01/15 07:38:23;;;;;;;39.40;27.58;;;77.50;1689.60;;;;;;5020058;28;20503;-54
2021/01/15 07:40:49;;;;;;;37.15;23.20;;;77.70;1664.00;;;;;;5018750;28;20514;-54
2021/01/15 07:43:28;;;;;;;24.05;15.43;;;102.50;1664.00;;;;;;5020112;28;20024;-53
2021/01/15 07:45:55;;;;;;;37.40;20.65;;;102.40;1689.60;;;;;;5021052;28;20407;-54
2021/01/15 07:48:21;;;;;;;56.65;33.38;;;102.40;1689.60;;;;;;5019341;28;20054;-54
2021/01/15 07:50:48;;;;;;;63.80;35.72;;;102.50;1664.00;;;;;;5026169;28;20029;-62
2021/01/15 07:53:23;;;;;;;38.25;23.70;;;102.50;1638.40;;;;;;5029661;28;20380;-61
2021/01/15 07:55:53;;;;;;;85.40;46.53;;;102.60;1664.00;;;;;;5030084;28;20022;-59
2021/01/15 07:58:42;;;;;;;52.97;30.77;;;102.60;1664.00;;;;;;5029713;28;20033;-58
2021/01/15 08:01:11;;;;;;;21.80;14.85;;;102.60;1664.00;;;;;;5027984;28;20060;-56
2021/01/15 08:03:41;;;;;;;32.13;21.42;;;102.80;1638.40;;;;;;5061761;28;20033;-56
2021/01/15 08:06:08;;;;;;;41.78;26.40;;;103.00;1612.80;;;;;;5033236;28;20495;-59
2021/01/15 08:08:33;;;;;;;44.83;26.92;;;103.20;1587.20;;;;;;5033169;28;20472;-58
2021/01/15 08:11:10;;;;;;;65.10;40.25;;;128.00;1587.20;;;;;;5034072;28;20034;-59
2021/01/15 08:13:36;;;;;;;70.85;44.65;;;128.40;1536.00;;;;;;5033639;28;20152;-58
2021/01/15 08:16:05;;;;;;;123.00;85.10;;;128.80;1510.40;;;;;;5033557;28;20061;-58
2021/01/15 08:18:32;;;;;;;97.50;64.55;;;154.30;1433.60;;;;;;5033853;28;20029;-62
2021/01/15 08:20:58;;;;;;;75.55;55.25;;;180.10;1305.60;;;;;;5034064;28;20539;-58
2021/01/15 08:23:26;;;;;;;55.15;44.05;;;205.70;1177.60;;;;;;5033264;28;20055;-59
2021/01/15 08:25:53;;;;;;;100.32;83.13;;;230.60;1177.60;;;;;;5033706;28;20017;-57
2021/01/15 08:28:19;;;;;;;50.70;41.13;;;256.00;1100.80;;;;;;5033802;28;20024;-58
2021/01/15 08:31:11;;;;;;;27.90;20.00;;;230.60;1152.00;;;;;;5032719;28;20032;-66
2021/01/15 08:33:37;;;;;;;52.30;38.08;;;179.90;1280.00;;;;;;5033064;28;20037;-62
2021/01/15 08:36:04;;;;;;;29.85;22.40;;;154.50;1356.80;;;;;;5033140;28;20113;-62
2021/01/15 08:38:37;;;;;;;50.55;32.63;;;179.40;1356.80;;;;;;5033537;28;20049;-62
2021/01/15 08:41:26;;;;;;;80.68;50.55;;;230.80;1177.60;;;;;;5033741;28;20029;-63
2021/01/15 08:43:52;;;;;;;53.30;36.17;;;281.60;1049.60;;;;;;5033045;28;20033;-61
2021/01/15 08:46:19;;;;;;;36.85;26.70;;;282.20;998.40;;;;;;5033014;28;20157;-62
2021/01/15 08:48:46;;;;;;;45.75;32.47;;;256.60;1049.60;;;;;;5032871;28;20060;-62
2021/01/15 08:51:19;;;;;;;45.28;33.55;;;231.10;1100.80;;;;;;5032987;28;20029;-60
2021/01/15 08:54:04;;;;;;;41.60;28.27;;;231.20;1100.80;;;;;;5033257;28;20037;-61
2021/01/15 08:56:35;;;;;;;20.30;15.30;;;256.70;1049.60;;;;;;5033118;28;20052;-63
2021/01/15 08:59:01;;;;;;;25.23;17.20;;;281.90;998.40;;;;;;5032647;28;20426;-61
2021/01/15 09:01:29;;;;;;;23.55;20.02;;;282.40;972.80;;;;;;5032752;28;20056;-62
2021/01/15 09:03:58;;;;;;;21.38;16.85;;;307.80;947.20;;;;;;5032965;28;20018;-62
2021/01/15 09:06:24;;;;;;;14.13;11.23;;;332.80;921.60;;;;;;5032530;28;20053;-60
2021/01/15 09:08:54;;;;;;;14.35;11.02;;;358.40;870.40;;;;;;5032836;28;20033;-61
2021/01/15 09:11:24;;;;;;;14.48;11.57;;;359.20;793.60;;;;;;5032872;28;20049;-61
2021/01/15 09:13:52;;;;;;;17.63;10.85;;;358.50;870.40;;;;;;5032291;28;20072;-62
2021/01/15 09:16:22;;;;;;;14.82;13.23;;;358.90;844.80;;;;;;5020986;28;20060;-61
2021/01/15 09:18:50;;;;;;;135.38;84.97;;;358.70;844.80;;;;;;5017797;28;20049;-61
2021/01/15 09:21:15;;;;;;;130.98;81.13;;;332.90;896.00;;;;;;5012607;28;20034;-62
2021/01/15 09:23:41;;;;;;;13.35;9.85;;;358.80;844.80;;;;;;5027676;28;20478;-61
2021/01/15 09:26:07;;;;;;;11.55;9.32;;;358.90;819.20;;;;;;5032230;28;20546;-61
2021/01/15 09:28:32;;;;;;;9.50;8.50;;;384.30;768.00;;;;;;5032014;28;20116;-61
2021/01/15 09:30:58;;;;;;;11.43;9.55;;;384.80;742.40;;;;;;5031701;28;20053;-62
2021/01/15 09:33:24;;;;;;;13.38;11.40;;;409.70;742.40;;;;;;5032241;28;20053;-61
2021/01/15 09:35:52;;;;;;;18.55;15.00;;;384.70;742.40;;;;;;5032076;28;20049;-62
2021/01/15 09:38:17;;;;;;;16.75;13.98;;;384.40;768.00;;;;;;5023745;28;20083;-61
2021/01/15 09:40:43;;;;;;;13.15;11.15;;;384.90;716.80;;;;;;5031381;28;20112;-62
2021/01/15 09:43:09;;;;;;;38.25;22.20;;;384.30;768.00;;;;;;5017359;28;20034;-62
2021/01/15 09:45:35;;;;;;;96.10;68.28;;;359.00;793.60;;;;;;5012612;28;20080;-61
2021/01/15 09:48:06;;;;;;;37.78;24.88;;;384.00;768.00;;;;;;5012058;28;20050;-63
2021/01/15 09:50:32;;;;;;;19.25;12.45;;;358.80;793.60;;;;;;5012131;28;20373;-63
2021/01/15 09:52:58;;;;;;;75.03;50.78;;;333.00;870.40;;;;;;5017312;28;20021;-62
2021/01/15 09:55:23;;;;;;;78.32;52.38;;;308.10;870.40;;;;;;5030216;28;20030;-62
2021/01/15 09:57:50;;;;;;;62.63;38.53;;;282.10;972.80;;;;;;5031161;28;20021;-62
2021/01/15 10:00:16;;;;;;;65.95;38.65;;;256.90;998.40;;;;;;5030065;28;20021;-62
2021/01/15 10:02:42;;;;;;;89.43;54.55;;;230.90;1100.80;;;;;;5030376;28;20013;-61
2021/01/15 10:05:08;;;;;;;36.10;20.38;;;230.40;1126.40;;;;;;5030729;28;20039;-61
2021/01/15 10:07:34;;;;;;;54.92;37.22;;;205.00;1203.20;;;;;;5031127;28;20029;-62
2021/01/15 10:10:00;;;;;;;55.78;38.22;;;179.80;1254.40;;;;;;5031368;28;20024;-61
2021/01/15 10:12:25;;;;;;;70.32;49.00;;;179.50;1280.00;;;;;;5030812;28;20029;-61
2021/01/15 10:14:51;;;;;;;62.80;48.22;;;154.20;1356.80;;;;;;5031002;28;20040;-60
2021/01/15 10:17:16;;;;;;;53.50;42.90;;;153.90;1382.40;;;;;;5030756;28;20039;-61
2021/01/15 10:19:42;;;;;;;26.75;18.98;;;154.40;1356.80;;;;;;5030930;28;20033;-61
2021/01/15 10:22:08;;;;;;;27.58;19.35;;;154.10;1408.00;;;;;;5029489;28;20498;-61
2021/01/15 10:24:34;;;;;;;44.67;28.33;;;154.10;1408.00;;;;;;5031006;28;20029;-61
2021/01/15 10:27:00;;;;;;;35.25;21.58;;;153.80;1408.00;;;;;;5030504;28;20030;-61
2021/01/15 10:29:25;;;;;;;35.55;22.15;;;153.80;1408.00;;;;;;5029600;28;20475;-61
2021/01/15 10:31:54;;;;;;;31.65;22.25;;;153.80;1408.00;;;;;;5031028;28;20060;-61
2021/01/15 10:34:21;;;;;;;23.70;13.38;;;153.90;1408.00;;;;;;5027142;28;20051;-61
2021/01/15 10:36:47;;;;;;;32.88;22.90;;;128.90;1433.60;;;;;;5030276;28;20486;-62
2021/01/15 10:39:14;;;;;;;12.10;7.72;;;128.70;1433.60;;;;;;5031179;28;20056;-58
2021/01/15 10:41:44;;;;;;;20.92;14.00;;;128.50;1459.20;;;;;;5031259;28;20034;-58
2021/01/15 10:44:10;;;;;;;25.77;14.70;;;128.30;1459.20;;;;;;5030592;28;20032;-58
2021/01/15 10:46:37;;;;;;;55.50;32.67;;;128.60;1459.20;;;;;;5030733;28;20040;-58
2021/01/15 10:49:07;;;;;;;37.03;20.00;;;128.80;1459.20;;;;;;5030675;28;20077;-58
2021/01/15 10:51:33;;;;;;;29.38;15.88;;;128.90;1433.60;;;;;;5030728;28;20036;-58
2021/01/15 10:53:58;;;;;;;37.28;17.98;;;128.90;1433.60;;;;;;5030750;28;20021;-58
2021/01/15 10:56:24;;;;;;;21.58;12.88;;;153.60;1433.60;;;;;;5030688;28;20025;-59
2021/01/15 10:58:51;;;;;;;22.85;14.88;;;153.60;1433.60;;;;;;5030327;28;20029;-58
2021/01/15 11:01:17;;;;;;;19.70;12.25;;;153.70;1433.60;;;;;;5030109;28;20021;-59
2021/01/15 11:03:45;;;;;;;16.48;10.63;;;153.80;1382.40;;;;;;5030909;28;20095;-58
2021/01/15 11:06:20;;;;;;;11.15;7.95;;;153.90;1382.40;;;;;;5030317;28;20048;-58
2021/01/15 11:08:46;;;;;;;21.45;13.65;;;154.30;1331.20;;;;;;5030652;28;20026;-58
2021/01/15 11:11:12;;;;;;;17.48;11.85;;;179.30;1331.20;;;;;;5030723;28;20025;-59
2021/01/15 11:13:38;;;;;;;14.57;10.45;;;179.40;1305.60;;;;;;5030066;28;20037;-58
2021/01/15 11:16:11;;;;;;;11.27;7.55;;;179.60;1280.00;;;;;;5030285;28;20086;-59
2021/01/15 11:18:36;;;;;;;14.98;9.73;;;179.50;1305.60;;;;;;5030323;28;20033;-58
2021/01/15 11:21:03;;;;;;;22.17;12.00;;;179.60;1305.60;;;;;;5030142;28;20045;-58
2021/01/15 11:23:28;;;;;;;21.52;14.25;;;179.60;1331.20;;;;;;5030523;28;20055;-58
2021/01/15 11:25:54;;;;;;;17.08;11.38;;;179.70;1280.00;;;;;;5030228;28;20528;-58
2021/01/15 11:28:19;;;;;;;14.48;10.65;;;179.60;1280.00;;;;;;5030098;28;20395;-58
2021/01/15 11:30:45;;;;;;;12.27;8.38;;;179.70;1280.00;;;;;;5029731;28;20029;-58
2021/01/15 11:33:11;;;;;;;40.00;24.52;;;179.90;1280.00;;;;;;5030373;28;20063;-58
2021/01/15 11:35:36;;;;;;;17.50;10.20;;;179.40;1305.60;;;;;;5030064;28;20025;-62
2021/01/15 11:38:02;;;;;;;17.02;12.05;;;154.40;1382.40;;;;;;5031105;28;20486;-58
2021/01/15 11:40:28;;;;;;;19.65;11.52;;;154.10;1408.00;;;;;;5034125;28;20030;-58
2021/01/15 11:42:55;;;;;;;18.33;12.70;;;153.60;1459.20;;;;;;5032755;28;20387;-58
2021/01/15 11:45:21;;;;;;;20.52;13.40;;;128.80;1484.80;;;;;;5034478;28;20079;-58
2021/01/15 11:47:53;;;;;;;28.08;17.98;;;128.30;1536.00;;;;;;5033895;28;20057;-58
2021/01/15 11:50:20;;;;;;;18.92;13.77;;;128.40;1536.00;;;;;;5033681;28;20032;-58
2021/01/15 11:52:45;;;;;;;21.02;13.05;;;128.60;1536.00;;;;;;5034188;28;20491;-61
2021/01/15 11:55:12;;;;;;;20.92;18.63;;;128.80;1510.40;;;;;;5034175;28;20026;-60
2021/01/15 11:57:38;;;;;;;31.15;22.63;;;153.70;1510.40;;;;;;5033627;28;20025;-58
2021/01/15 12:00:05;;;;;;;288.55;193.38;;;154.30;1433.60;;;;;;5033631;28;20053;-59
2021/01/15 12:02:31;;;;;;;90.18;55.35;;;154.30;1408.00;;;;;;5032818;28;20041;-58
2021/01/15 12:04:57;;;;;;;11.35;7.50;;;154.20;1433.60;;;;;;5033704;28;20040;-58
2021/01/15 12:07:22;;;;;;;14.13;9.73;;;154.30;1433.60;;;;;;5033928;28;20435;-58
2021/01/15 12:09:48;;;;;;;57.47;45.03;;;154.40;1408.00;;;;;;5033775;28;20044;-58
2021/01/15 12:12:14;;;;;;;29.02;20.00;;;179.30;1382.40;;;;;;5033383;28;20104;-59
2021/01/15 12:14:40;;;;;;;35.75;23.60;;;179.30;1382.40;;;;;;5033761;28;20065;-59
2021/01/15 12:17:05;;;;;;;27.10;15.88;;;179.40;1382.40;;;;;;5033676;28;20033;-59